createdAt,value
2018-07-22T00:00:28.533Z,6.30
2018-07-22T00:02:56.485Z,5.80
2018-07-22T00:05:24.678Z,6.22
2018-07-22T00:07:52.571Z,6.08
2018-07-22T00:10:23.211Z,6.33
2018-07-22T00:12:51.218Z,5.80
2018-07-22T00:15:19.176Z,6.20
2018-07-22T00:17:47.795Z,5.60
2018-07-22T00:20:16.910Z,5.85
2018-07-22T00:22:44.984Z,6.10
2018-07-22T00:25:13.216Z,6.20
2018-07-22T00:27:41.197Z,6.30
2018-07-22T00:30:09.877Z,5.90
2018-07-22T00:32:39.263Z,5.87
2018-07-22T00:35:07.679Z,5.60
2018-07-22T00:37:35.857Z,6.30
2018-07-22T00:40:04.540Z,6.40
2018-07-22T00:42:32.570Z,5.90
2018-07-22T00:45:00.995Z,6.25
2018-07-22T00:47:28.961Z,6.20
2018-07-22T00:49:57.112Z,6.12
2018-07-22T00:52:25.105Z,6.83
2018-07-22T00:54:54.309Z,6.50
2018-07-22T00:57:22.540Z,6.30
2018-07-22T00:59:50.855Z,5.87
2018-07-22T01:02:18.753Z,6.50
2018-07-22T01:04:46.765Z,6.45
2018-07-22T01:07:15.084Z,5.75
2018-07-22T01:09:43.002Z,6.20
2018-07-22T01:12:10.961Z,5.70
2018-07-22T01:14:39.187Z,5.83
2018-07-22T01:17:07.461Z,5.97
2018-07-22T01:19:35.373Z,5.77
2018-07-22T01:22:03.550Z,5.35
2018-07-22T01:24:32.504Z,5.90
2018-07-22T01:27:00.986Z,5.75
2018-07-22T01:29:29.265Z,5.80
2018-07-22T01:31:57.188Z,6.20
2018-07-22T01:34:25.131Z,6.60
2018-07-22T01:36:53.349Z,6.20
2018-07-22T01:39:21.264Z,6.20
2018-07-22T01:41:49.201Z,6.72
2018-07-22T01:44:17.388Z,7.00
2018-07-22T01:46:45.602Z,6.92
2018-07-22T01:49:13.841Z,6.72
2018-07-22T01:51:42.021Z,6.45
2018-07-22T01:54:09.977Z,6.10
2018-07-22T01:56:38.912Z,6.47
2018-07-22T01:59:07.177Z,6.10
2018-07-22T02:01:35.502Z,6.50
2018-07-22T02:04:03.999Z,6.20
2018-07-22T02:06:32.240Z,6.80
2018-07-22T02:09:00.475Z,7.28
2018-07-22T02:11:29.006Z,8.50
2018-07-22T02:13:56.998Z,6.70
2018-07-22T02:16:25.908Z,6.22
2018-07-22T02:18:53.873Z,6.80
2018-07-22T02:21:21.827Z,5.70
2018-07-22T02:23:49.804Z,6.03
2018-07-22T02:26:18.208Z,6.50
2018-07-22T02:28:46.148Z,6.00
2018-07-22T02:31:14.099Z,6.00
2018-07-22T02:33:42.252Z,5.30
2018-07-22T02:36:10.692Z,5.70
2018-07-22T02:38:38.957Z,6.00
2018-07-22T02:41:07.245Z,5.50
2018-07-22T02:43:35.137Z,5.60
2018-07-22T02:46:03.389Z,5.62
2018-07-22T02:48:31.374Z,6.00
2018-07-22T02:50:59.385Z,5.85
2018-07-22T02:53:27.664Z,5.40
2018-07-22T02:55:55.916Z,5.60
2018-07-22T02:58:24.109Z,5.83
2018-07-22T03:00:52.324Z,5.40
2018-07-22T03:03:20.796Z,5.62
2018-07-22T03:05:49.044Z,5.55
2018-07-22T03:08:17.256Z,5.80
2018-07-22T03:10:45.229Z,5.87
2018-07-22T03:13:13.913Z,5.60
2018-07-22T03:15:42.221Z,5.45
2018-07-22T03:18:10.512Z,5.80
2018-07-22T03:20:38.509Z,5.58
2018-07-22T03:23:06.772Z,5.90
2018-07-22T03:25:34.718Z,5.70
2018-07-22T03:28:03.488Z,5.70
2018-07-22T03:30:31.761Z,5.60
2018-07-22T03:32:59.677Z,5.70
2018-07-22T03:35:27.840Z,6.15
2018-07-22T03:37:56.460Z,6.20
2018-07-22T03:40:25.280Z,5.80
2018-07-22T03:42:53.916Z,5.75
2018-07-22T03:45:22.137Z,5.78
2018-07-22T03:47:50.689Z,5.90
2018-07-22T03:50:18.619Z,5.58
2018-07-22T03:52:47.580Z,5.70
2018-07-22T03:55:15.473Z,5.60
2018-07-22T03:57:43.729Z,5.80
2018-07-22T04:00:12.686Z,5.75
2018-07-22T04:02:40.603Z,5.80
2018-07-22T04:05:09.112Z,5.90
2018-07-22T04:07:37.920Z,5.85
2018-07-22T04:10:06.429Z,5.80
2018-07-22T04:12:34.869Z,5.80
2018-07-22T04:15:03.095Z,5.40
2018-07-22T04:17:31.330Z,5.15
2018-07-22T04:19:59.589Z,5.97
2018-07-22T04:22:27.516Z,5.85
2018-07-22T04:24:55.471Z,6.00
2018-07-22T04:27:23.724Z,5.50
2018-07-22T04:29:51.936Z,5.70
2018-07-22T04:32:19.946Z,5.50
2018-07-22T04:34:48.493Z,5.80
2018-07-22T04:37:16.436Z,5.87
2018-07-22T04:39:44.385Z,5.80
2018-07-22T04:42:12.907Z,5.67
2018-07-22T04:44:40.836Z,5.50
2018-07-22T04:47:09.055Z,5.45
2018-07-22T04:49:37.350Z,5.72
2018-07-22T04:52:05.775Z,5.37
2018-07-22T04:54:33.720Z,5.42
2018-07-22T04:57:01.894Z,5.50
2018-07-22T04:59:29.805Z,5.62
2018-07-22T05:01:58.413Z,5.50
2018-07-22T05:04:26.620Z,5.30
2018-07-22T05:06:54.620Z,5.70
2018-07-22T05:09:22.793Z,5.50
2018-07-22T05:11:51.797Z,5.80
2018-07-22T05:14:19.707Z,6.10
2018-07-22T05:16:47.864Z,5.87
2018-07-22T05:19:15.873Z,6.00
2018-07-22T05:21:43.788Z,6.10
2018-07-22T05:24:11.956Z,6.58
2018-07-22T05:26:39.880Z,5.65
2018-07-22T05:29:07.873Z,6.03
2018-07-22T05:31:35.837Z,6.00
2018-07-22T05:34:04.541Z,6.30
2018-07-22T05:36:32.541Z,5.90
2018-07-22T05:39:00.497Z,6.58
2018-07-22T05:41:28.441Z,5.72
2018-07-22T05:43:56.662Z,6.12
2018-07-22T05:46:24.608Z,6.10
2018-07-22T05:48:52.730Z,5.80
2018-07-22T05:51:20.685Z,5.90
2018-07-22T05:53:48.647Z,6.00
2018-07-22T05:56:16.904Z,6.40
2018-07-22T05:58:44.824Z,6.35
2018-07-22T06:01:13.084Z,6.30
2018-07-22T06:03:41.049Z,5.20
2018-07-22T06:06:09.622Z,5.70
2018-07-22T06:08:37.683Z,6.10
2018-07-22T06:11:06.372Z,6.13
2018-07-22T06:13:34.712Z,6.25
2018-07-22T06:16:02.679Z,6.10
2018-07-22T06:18:31.304Z,6.00
2018-07-22T06:20:59.497Z,6.20
2018-07-22T06:23:27.454Z,6.50
2018-07-22T06:25:55.465Z,6.58
2018-07-22T06:28:23.696Z,6.30
2018-07-22T06:30:52.152Z,6.60
2018-07-22T06:33:20.352Z,7.00
2018-07-22T06:35:48.405Z,6.37
2018-07-22T06:38:16.361Z,6.73
2018-07-22T06:40:44.692Z,6.60
2018-07-22T06:43:12.953Z,6.50
2018-07-22T06:45:41.429Z,6.43
2018-07-22T06:48:09.362Z,6.35
2018-07-22T06:50:37.513Z,7.10
2018-07-22T06:53:06.061Z,7.00
2018-07-22T06:55:34.111Z,7.20
2018-07-22T06:58:02.012Z,7.00
2018-07-22T07:00:29.996Z,6.70
2018-07-22T07:02:58.271Z,6.65
2018-07-22T07:05:26.360Z,6.90
2018-07-22T07:07:54.837Z,6.50
2018-07-22T07:10:23.589Z,6.58
2018-07-22T07:12:52.536Z,6.42
2018-07-22T07:15:20.712Z,6.90
2018-07-22T07:17:48.936Z,6.60
2018-07-22T07:20:17.211Z,6.80
2018-07-22T07:22:45.092Z,7.20
2018-07-22T07:25:12.984Z,6.40
2018-07-22T07:27:40.900Z,7.00
2018-07-22T07:30:08.828Z,6.73
2018-07-22T07:32:37.052Z,6.72
2018-07-22T07:35:05.013Z,7.00
2018-07-22T07:37:33.203Z,7.50
2018-07-22T07:40:01.404Z,7.30
2018-07-22T07:42:29.573Z,7.30
2018-07-22T07:44:57.888Z,7.90
2018-07-22T07:47:26.035Z,7.80
2018-07-22T07:49:54.285Z,7.50
2018-07-22T07:52:22.221Z,8.28
2018-07-22T07:54:50.246Z,8.43
2018-07-22T07:57:18.487Z,8.30
2018-07-22T07:59:47.500Z,8.80
2018-07-22T08:02:15.719Z,8.30
2018-07-22T08:04:43.670Z,8.30
2018-07-22T08:07:11.878Z,8.30
2018-07-22T08:09:39.762Z,8.23
2018-07-22T08:12:08.054Z,8.27
2018-07-22T08:14:36.532Z,7.87
2018-07-22T08:17:04.448Z,8.80
2018-07-22T08:19:33.148Z,8.15
2018-07-22T08:22:01.181Z,8.75
2018-07-22T08:24:29.570Z,7.93
2018-07-22T08:26:57.487Z,7.00
2018-07-22T08:29:30.908Z,7.60
2018-07-22T08:31:59.527Z,8.45
2018-07-22T08:34:27.555Z,7.93
2018-07-22T08:36:55.738Z,7.70
2018-07-22T08:39:25.245Z,7.30
2018-07-22T08:41:54.128Z,7.95
2018-07-22T08:44:22.567Z,7.50
2018-07-22T08:46:51.092Z,7.53
2018-07-22T08:49:19.242Z,7.53
2018-07-22T08:51:47.205Z,7.62
2018-07-22T08:54:15.361Z,8.10
2018-07-22T08:56:43.393Z,8.00
2018-07-22T08:59:11.418Z,8.00
2018-07-22T09:01:39.604Z,7.55
2018-07-22T09:04:07.905Z,7.80
2018-07-22T09:06:36.229Z,7.67
2018-07-22T09:09:06.812Z,8.23
2018-07-22T09:11:35.075Z,8.08
2018-07-22T09:14:03.193Z,7.92
2018-07-22T09:16:31.529Z,7.97
2018-07-22T09:18:59.553Z,8.10
2018-07-22T09:21:28.161Z,7.77
2018-07-22T09:23:56.379Z,8.10
2018-07-22T09:26:24.905Z,8.05
2018-07-22T09:28:52.836Z,7.70
2018-07-22T09:31:20.812Z,8.80
2018-07-22T09:33:49.276Z,8.90
2018-07-22T09:36:17.858Z,8.40
2018-07-22T09:38:45.663Z,8.75
2018-07-22T09:41:13.900Z,8.30
2018-07-22T09:43:42.157Z,8.78
2018-07-22T09:46:10.588Z,8.40
2018-07-22T09:48:38.520Z,8.13
2018-07-22T09:51:06.708Z,8.40
2018-07-22T09:53:34.984Z,8.48
2018-07-22T09:56:02.960Z,8.15
2018-07-22T09:58:31.247Z,8.70
2018-07-22T10:01:00.633Z,8.40
2018-07-22T10:03:30.223Z,8.40
2018-07-22T10:05:58.352Z,8.18
2018-07-22T10:08:26.557Z,8.55
2018-07-22T10:10:54.751Z,9.18
2018-07-22T10:13:23.105Z,8.10
2018-07-22T10:15:51.015Z,9.10
2018-07-22T10:18:19.354Z,8.50
2018-07-22T10:20:47.316Z,8.73
2018-07-22T10:23:15.548Z,8.98
2018-07-22T10:25:43.810Z,8.70
2018-07-22T10:28:12.125Z,8.33
2018-07-22T10:30:40.883Z,8.63
2018-07-22T10:33:08.905Z,8.75
2018-07-22T10:35:36.997Z,8.50
2018-07-22T10:38:04.936Z,8.90
2018-07-22T10:40:32.929Z,8.70
2018-07-22T10:43:00.856Z,8.65
2018-07-22T10:45:28.833Z,8.75
2018-07-22T10:47:57.008Z,8.40
2018-07-22T10:50:25.487Z,11.10
2018-07-22T10:52:53.415Z,9.00
2018-07-22T10:55:21.352Z,8.60
2018-07-22T10:57:49.873Z,8.38
2018-07-22T11:00:17.840Z,8.77
2018-07-22T11:02:45.861Z,9.28
2018-07-22T11:05:14.177Z,9.63
2018-07-22T11:07:42.404Z,8.80
2018-07-22T11:10:10.411Z,8.70
2018-07-22T11:12:38.717Z,8.53
2018-07-22T11:15:06.856Z,8.60
2018-07-22T11:17:35.740Z,8.30
2018-07-22T11:20:03.727Z,8.15
2018-07-22T11:22:31.641Z,8.30
2018-07-22T11:24:59.880Z,8.33
2018-07-22T11:27:28.174Z,7.42
2018-07-22T11:29:56.141Z,7.20
2018-07-22T11:32:24.165Z,6.58
2018-07-22T11:34:52.440Z,7.08
2018-07-22T11:37:20.596Z,7.03
2018-07-22T11:39:48.678Z,7.00
2018-07-22T11:42:16.606Z,6.83
2018-07-22T11:44:45.186Z,6.70
2018-07-22T11:47:13.124Z,6.30
2018-07-22T11:49:41.049Z,7.80
2018-07-22T11:52:09.043Z,6.97
2018-07-22T11:54:37.004Z,6.80
2018-07-22T11:57:04.949Z,7.90
2018-07-22T11:59:33.100Z,6.92
2018-07-22T12:02:01.094Z,6.90
2018-07-22T12:04:29.077Z,7.42
2018-07-22T12:06:57.054Z,7.55
2018-07-22T12:09:24.960Z,7.08
2018-07-22T12:11:52.892Z,8.10
2018-07-22T12:15:26.217Z,7.70
2018-07-22T12:17:54.642Z,7.50
2018-07-22T12:20:23.221Z,6.60
2018-07-22T12:22:51.397Z,6.28
2018-07-22T12:25:19.323Z,5.80
2018-07-22T12:27:47.320Z,6.03
2018-07-22T12:30:15.529Z,6.10
2018-07-22T12:32:43.507Z,5.85
2018-07-22T12:35:11.438Z,5.80
2018-07-22T12:37:40.028Z,6.20
2018-07-22T12:40:08.204Z,6.30
2018-07-22T12:42:36.683Z,5.80
2018-07-22T12:45:05.599Z,5.70
2018-07-22T12:47:33.606Z,6.58
2018-07-22T12:50:02.134Z,6.20
2018-07-22T12:52:30.307Z,6.53
2018-07-22T12:54:58.267Z,6.03
2018-07-22T12:57:26.249Z,5.95
2018-07-22T12:59:54.802Z,6.30
2018-07-22T13:02:23.082Z,5.67
2018-07-22T13:04:51.062Z,5.90
2018-07-22T13:07:19.296Z,5.90
2018-07-22T13:09:47.530Z,5.70
2018-07-22T13:12:15.527Z,5.90
2018-07-22T13:14:43.483Z,5.90
2018-07-22T13:17:11.948Z,5.90
2018-07-22T13:19:39.891Z,5.92
2018-07-22T13:22:08.097Z,5.70
2018-07-22T13:24:36.495Z,5.95
2018-07-22T13:27:04.389Z,6.10
2018-07-22T13:29:32.860Z,6.00
2018-07-22T13:32:00.833Z,5.60
2018-07-22T13:34:29.013Z,5.80
2018-07-22T13:36:56.951Z,5.50
2018-07-22T13:39:25.225Z,5.80
2018-07-22T13:41:53.211Z,5.90
2018-07-22T13:44:21.266Z,5.83
2018-07-22T13:46:49.221Z,6.10
2018-07-22T13:49:17.181Z,6.42
2018-07-22T13:51:45.677Z,6.40
2018-07-22T13:54:14.152Z,5.67
2018-07-22T13:56:42.598Z,5.50
2018-07-22T13:59:10.761Z,5.73
2018-07-22T14:01:38.993Z,5.80
2018-07-22T14:04:07.401Z,6.05
2018-07-22T14:06:35.590Z,5.40
2018-07-22T14:09:04.260Z,5.80
2018-07-22T14:11:32.438Z,5.35
2018-07-22T14:14:00.391Z,5.50
2018-07-22T14:16:28.585Z,5.20
2018-07-22T14:18:56.583Z,5.50
2018-07-22T14:21:24.552Z,5.60
2018-07-22T14:23:52.513Z,5.72
2018-07-22T14:26:20.457Z,5.70
2018-07-22T14:28:48.413Z,5.90
2018-07-22T14:31:16.401Z,5.60
2018-07-22T14:33:44.389Z,5.85
2018-07-22T14:36:12.617Z,6.10
2018-07-22T14:38:40.813Z,6.23
2018-07-22T14:41:09.091Z,6.65
2018-07-22T14:43:37.249Z,7.17
2018-07-22T14:46:05.742Z,6.87
2018-07-22T14:48:34.166Z,6.70
2018-07-22T14:51:02.387Z,7.40
2018-07-22T14:53:30.387Z,7.10
2018-07-22T14:55:58.621Z,7.67
2018-07-22T14:58:26.834Z,8.05
2018-07-22T15:00:55.073Z,7.33
2018-07-22T15:03:23.249Z,7.53
2018-07-22T15:05:51.488Z,7.70
2018-07-22T15:08:19.703Z,7.78
2018-07-22T15:10:47.872Z,8.78
2018-07-22T15:13:15.808Z,8.38
2018-07-22T15:15:44.407Z,8.20
2018-07-22T15:18:12.621Z,7.72
2018-07-22T15:20:40.844Z,8.37
2018-07-22T15:23:08.936Z,8.50
2018-07-22T15:25:37.181Z,9.08
2018-07-22T15:28:05.700Z,9.70
2018-07-22T15:30:34.301Z,9.48
2018-07-22T15:33:02.781Z,9.08
2018-07-22T15:35:31.057Z,9.80
2018-07-22T15:37:59.130Z,9.60
2018-07-22T15:40:27.804Z,9.65
2018-07-22T15:42:55.885Z,10.20
2018-07-22T15:45:24.102Z,8.83
2018-07-22T15:47:52.394Z,9.90
2018-07-22T15:50:20.909Z,8.80
2018-07-22T15:52:49.408Z,9.50
2018-07-22T15:55:17.886Z,9.60
2018-07-22T15:57:46.059Z,9.23
2018-07-22T16:00:14.533Z,9.93
2018-07-22T16:02:42.613Z,9.60
2018-07-22T16:05:11.002Z,8.90
2018-07-22T16:07:39.598Z,9.45
2018-07-22T16:10:08.283Z,8.83
2018-07-22T16:12:36.523Z,9.13
2018-07-22T16:15:04.957Z,9.00
2018-07-22T16:17:33.097Z,9.20
2018-07-22T16:20:01.211Z,8.65
2018-07-22T16:22:29.651Z,8.50
2018-07-22T16:24:58.350Z,8.30
2018-07-22T16:27:26.518Z,8.15
2018-07-22T16:29:55.090Z,7.90
2018-07-22T16:32:23.366Z,8.45
2018-07-22T16:34:51.377Z,7.58
2018-07-22T16:37:19.723Z,7.75
2018-07-22T16:39:49.029Z,6.87
2018-07-22T16:42:18.199Z,6.95
2018-07-22T16:44:47.862Z,7.40
2018-07-22T16:47:16.309Z,7.12
2018-07-22T16:49:44.575Z,7.17
2018-07-22T16:52:13.175Z,7.10
2018-07-22T16:54:41.386Z,7.37
2018-07-22T16:57:09.727Z,7.35
2018-07-22T16:59:38.367Z,7.53
2018-07-22T17:02:06.781Z,7.90
2018-07-22T17:04:35.377Z,7.42
2018-07-22T17:07:04.166Z,8.10
2018-07-22T17:09:32.411Z,7.97
2018-07-22T17:12:00.621Z,7.67
2018-07-22T17:14:28.714Z,9.93
2018-07-22T17:16:56.952Z,9.93
2018-07-22T17:19:25.725Z,9.50
2018-07-22T17:21:54.663Z,10.03
2018-07-22T17:24:23.374Z,10.72
2018-07-22T17:26:52.126Z,11.23
2018-07-22T17:29:20.303Z,10.48
2018-07-22T17:31:48.407Z,11.93
2018-07-22T17:34:16.438Z,10.38
2018-07-22T17:36:44.839Z,11.40
2018-07-22T17:39:13.026Z,12.00
2018-07-22T17:41:41.334Z,11.47
2018-07-22T17:44:10.001Z,11.53
2018-07-22T17:46:38.447Z,12.18
2018-07-22T17:49:06.803Z,10.85
2018-07-22T17:51:35.411Z,9.73
2018-07-22T17:54:03.438Z,9.90
2018-07-22T17:56:31.533Z,10.43
2018-07-22T17:58:59.686Z,9.78
2018-07-22T18:01:28.208Z,10.18
2018-07-22T18:03:56.506Z,10.50
2018-07-22T18:06:25.108Z,9.78
2018-07-22T18:08:53.754Z,9.60
2018-07-22T18:11:21.921Z,9.85
2018-07-22T18:13:50.923Z,11.18
2018-07-22T18:16:18.997Z,10.10
2018-07-22T18:18:47.264Z,11.03
2018-07-22T18:21:15.870Z,10.68
2018-07-22T18:23:43.920Z,10.60
2018-07-22T18:26:12.405Z,10.30
2018-07-22T18:28:40.514Z,9.70
2018-07-22T18:31:08.626Z,8.80
2018-07-22T18:33:36.698Z,9.80
2018-07-22T18:36:05.285Z,9.35
2018-07-22T18:38:33.358Z,10.50
2018-07-22T18:41:01.365Z,9.80
2018-07-22T18:43:30.511Z,9.80
2018-07-22T18:45:59.383Z,8.60
2018-07-22T18:48:28.183Z,7.28
2018-07-22T18:50:56.395Z,6.37
2018-07-22T18:53:24.503Z,6.00
2018-07-22T18:55:52.647Z,5.97
2018-07-22T18:58:21.233Z,4.50
2018-07-22T19:00:49.834Z,5.00
2018-07-22T19:03:18.477Z,4.50
2018-07-22T19:05:46.515Z,5.20
2018-07-22T19:08:14.727Z,4.50
2018-07-22T19:10:42.941Z,4.37
2018-07-22T19:13:11.444Z,4.50
2018-07-22T19:15:39.738Z,4.65
2018-07-22T19:18:07.982Z,5.00
2018-07-22T19:20:36.047Z,4.60
2018-07-22T19:23:04.497Z,4.60
2018-07-22T19:25:32.961Z,4.50
2018-07-22T19:28:01.257Z,4.35
2018-07-22T19:30:29.721Z,4.47
2018-07-22T19:32:57.681Z,4.30
2018-07-22T19:35:26.101Z,4.08
2018-07-22T19:37:54.854Z,3.70
2018-07-22T19:40:23.086Z,4.53
2018-07-22T19:42:52.164Z,5.00
2018-07-22T19:45:21.571Z,4.78
2018-07-22T19:47:50.061Z,3.50
2018-07-22T19:50:19.153Z,4.20
2018-07-22T19:52:49.543Z,4.00
2018-07-22T19:55:19.459Z,3.70
2018-07-22T19:57:48.980Z,3.37
2018-07-22T20:00:18.227Z,8.20
2018-07-22T20:02:47.124Z,3.10
2018-07-22T20:05:15.829Z,2.90
2018-07-22T20:07:44.735Z,3.40
2018-07-22T20:10:13.663Z,3.40
2018-07-22T20:12:42.768Z,3.27
2018-07-22T20:15:11.836Z,3.00
2018-07-22T20:17:42.328Z,3.30
2018-07-22T20:20:12.684Z,3.58
2018-07-22T20:22:44.805Z,3.10
2018-07-22T20:25:13.787Z,3.40
2018-07-22T20:27:44.866Z,3.47
2018-07-22T20:30:14.527Z,3.10
2018-07-22T20:32:44.692Z,3.15
2018-07-22T20:35:13.181Z,2.85
2018-07-22T20:37:42.111Z,3.10
2018-07-22T20:40:10.457Z,3.40
2018-07-22T20:42:38.683Z,3.90
2018-07-22T20:45:07.115Z,3.40
2018-07-22T20:47:35.725Z,2.77
2018-07-22T20:50:04.964Z,3.50
2018-07-22T20:52:42.822Z,3.08
2018-07-22T20:55:15.939Z,2.70
2018-07-22T20:57:48.031Z,3.00
2018-07-22T21:00:19.490Z,2.60
2018-07-22T21:02:54.874Z,2.75
2018-07-22T21:05:31.236Z,2.70
2018-07-22T21:08:07.528Z,2.70
2018-07-22T21:10:46.963Z,3.10
2018-07-22T21:13:18.713Z,3.00
2018-07-22T21:15:47.329Z,2.90
2018-07-22T21:18:15.874Z,3.20
2018-07-22T21:20:44.165Z,3.20
2018-07-22T21:23:12.380Z,3.05
2018-07-22T21:25:40.908Z,3.30
2018-07-22T21:28:09.102Z,3.20
2018-07-22T21:30:37.325Z,3.27
2018-07-22T21:33:05.402Z,3.05
2018-07-22T21:35:33.502Z,3.10
2018-07-22T21:38:01.990Z,2.90
2018-07-22T21:40:30.674Z,3.20
2018-07-22T21:42:59.241Z,3.10
2018-07-22T21:45:27.591Z,3.12
2018-07-22T21:47:55.694Z,3.00
2018-07-22T21:50:23.746Z,3.00
2018-07-22T21:52:51.858Z,3.12
2018-07-22T21:55:20.008Z,3.30
2018-07-22T21:57:48.484Z,4.60
2018-07-22T22:00:21.463Z,3.50
2018-07-22T22:02:49.497Z,3.37
2018-07-22T22:05:17.548Z,3.67
2018-07-22T22:07:45.941Z,3.00
2018-07-22T22:10:14.467Z,3.10
2018-07-22T22:12:43.008Z,3.30
2018-07-22T22:15:15.973Z,3.45
2018-07-22T22:17:44.346Z,3.58
2018-07-22T22:20:12.963Z,3.30
2018-07-22T22:22:41.183Z,3.58
2018-07-22T22:25:11.416Z,3.15
2018-07-22T22:27:39.801Z,3.00
2018-07-22T22:30:08.079Z,3.60
2018-07-22T22:32:36.648Z,3.50
2018-07-22T22:35:05.234Z,3.70
2018-07-22T22:37:33.575Z,3.20
2018-07-22T22:40:01.800Z,3.80
2018-07-22T22:42:30.489Z,3.25
2018-07-22T22:44:58.953Z,3.50
2018-07-22T22:47:27.207Z,3.35
2018-07-22T22:49:55.322Z,3.30
2018-07-22T22:52:23.486Z,3.20
2018-07-22T22:54:52.185Z,3.77
2018-07-22T22:57:20.349Z,3.30
2018-07-22T22:59:48.814Z,3.30
2018-07-22T23:02:16.893Z,3.57
2018-07-22T23:04:45.060Z,3.20
2018-07-22T23:07:13.291Z,3.40
2018-07-22T23:09:41.745Z,3.50
2018-07-22T23:12:10.608Z,3.35
2018-07-22T23:14:38.758Z,3.63
2018-07-22T23:17:07.454Z,3.47
2018-07-22T23:19:35.896Z,3.47
2018-07-22T23:22:04.581Z,3.45
2018-07-22T23:24:33.520Z,3.20
2018-07-22T23:27:02.144Z,3.57
2018-07-22T23:29:30.821Z,4.05
2018-07-22T23:31:59.631Z,3.50
2018-07-22T23:34:29.188Z,3.62
2018-07-22T23:36:57.780Z,3.80
2018-07-22T23:39:26.770Z,3.60
2018-07-22T23:41:55.044Z,4.15
2018-07-22T23:44:24.902Z,4.10
2018-07-22T23:46:53.745Z,3.50
2018-07-22T23:49:22.606Z,3.70
2018-07-22T23:51:51.862Z,3.90
2018-07-22T23:54:21.072Z,4.40
2018-07-22T23:56:50.343Z,3.90
2018-07-22T23:59:19.557Z,4.08
